createdAt,value
2019-05-13T00:00:34.021Z,71.04
2019-05-13T00:03:03.372Z,67.93
2019-05-13T00:05:30.205Z,67.84
2019-05-13T00:07:57.406Z,68.99
2019-05-13T00:10:24.537Z,65.50
2019-05-13T00:12:53.953Z,66.13
2019-05-13T00:15:20.756Z,64.24
2019-05-13T00:17:47.840Z,63.51
2019-05-13T00:20:16.221Z,61.05
2019-05-13T00:22:44.686Z,61.78
2019-05-13T00:25:14.401Z,62.00
2019-05-13T00:27:41.221Z,59.54
2019-05-13T00:30:09.422Z,59.87
2019-05-13T00:32:36.570Z,60.90
2019-05-13T00:35:04.056Z,62.62
2019-05-13T00:37:33.328Z,60.82
2019-05-13T00:40:00.215Z,60.44
2019-05-13T00:42:27.303Z,60.58
2019-05-13T00:44:54.403Z,63.81
2019-05-13T00:47:23.552Z,66.17
2019-05-13T00:49:50.580Z,62.80
2019-05-13T00:52:17.708Z,61.82
2019-05-13T00:54:44.846Z,61.89
2019-05-13T00:57:13.364Z,61.79
2019-05-13T00:59:44.128Z,61.92
2019-05-13T01:02:10.551Z,63.93
2019-05-13T01:04:37.639Z,63.82
2019-05-13T01:07:04.808Z,63.27
2019-05-13T01:09:34.038Z,63.39
2019-05-13T01:12:00.955Z,63.27
2019-05-13T01:14:28.139Z,62.61
2019-05-13T01:16:55.234Z,62.67
2019-05-13T01:19:23.717Z,63.30
2019-05-13T01:21:53.845Z,62.95
2019-05-13T01:24:20.486Z,63.05
2019-05-13T01:26:47.654Z,63.77
2019-05-13T01:29:14.761Z,65.75
2019-05-13T01:31:43.481Z,63.26
2019-05-13T01:34:10.838Z,63.65
2019-05-13T01:36:38.349Z,64.26
2019-05-13T01:39:06.583Z,64.71
2019-05-13T01:41:33.704Z,64.46
2019-05-13T01:44:00.792Z,64.43
2019-05-13T01:46:27.865Z,63.90
2019-05-13T01:48:55.334Z,65.41
2019-05-13T01:51:23.948Z,65.47
2019-05-13T01:53:53.428Z,64.96
2019-05-13T01:56:20.294Z,65.00
2019-05-13T01:58:47.817Z,65.79
2019-05-13T02:01:15.064Z,66.05
2019-05-13T02:03:44.264Z,66.33
2019-05-13T02:06:11.199Z,65.92
2019-05-13T02:08:38.320Z,65.56
2019-05-13T02:11:05.421Z,66.89
2019-05-13T02:13:34.389Z,66.67
2019-05-13T02:16:03.917Z,66.91
2019-05-13T02:18:30.834Z,67.12
2019-05-13T02:20:57.950Z,67.38
2019-05-13T02:23:25.039Z,67.39
2019-05-13T02:25:54.337Z,67.31
2019-05-13T02:28:21.190Z,68.03
2019-05-13T02:30:48.370Z,67.13
2019-05-13T02:33:15.857Z,68.58
2019-05-13T02:35:43.558Z,68.14
2019-05-13T02:38:19.878Z,68.57
2019-05-13T02:40:43.179Z,68.53
2019-05-13T02:43:13.581Z,68.95
2019-05-13T02:45:42.781Z,68.07
2019-05-13T02:48:12.493Z,68.08
2019-05-13T02:50:38.077Z,68.89
2019-05-13T02:53:05.283Z,68.14
2019-05-13T02:55:33.073Z,68.34
2019-05-13T02:58:03.304Z,68.91
2019-05-13T03:00:32.647Z,68.38
2019-05-13T03:02:58.453Z,68.47
2019-05-13T03:05:25.528Z,69.15
2019-05-13T03:07:53.239Z,69.77
2019-05-13T03:10:22.403Z,69.45
2019-05-13T03:12:53.193Z,69.87
2019-05-13T03:15:18.639Z,70.36
2019-05-13T03:18:05.663Z,70.38
2019-05-13T03:20:34.552Z,70.73
2019-05-13T03:23:03.112Z,70.75
2019-05-13T03:25:38.837Z,70.99
2019-05-13T03:28:06.027Z,71.32
2019-05-13T03:30:35.468Z,72.67
2019-05-13T03:33:10.380Z,71.83
2019-05-13T03:35:36.682Z,71.68
2019-05-13T03:38:03.438Z,72.74
2019-05-13T03:40:33.010Z,73.04
2019-05-13T03:43:02.775Z,72.69
2019-05-13T03:45:32.709Z,72.53
2019-05-13T03:48:03.673Z,72.40
2019-05-13T03:50:33.405Z,72.93
2019-05-13T03:53:02.643Z,72.27
2019-05-13T03:55:27.997Z,72.59
2019-05-13T03:57:55.317Z,72.49
2019-05-13T04:00:23.542Z,72.45
2019-05-13T04:02:52.238Z,72.45
2019-05-13T04:05:22.843Z,72.73
2019-05-13T04:07:52.013Z,71.92
2019-05-13T04:10:18.785Z,71.88
2019-05-13T04:12:45.897Z,72.67
2019-05-13T04:15:13.093Z,72.06
2019-05-13T04:17:42.796Z,72.66
2019-05-13T04:20:12.340Z,73.61
2019-05-13T04:22:38.276Z,72.58
2019-05-13T04:25:05.664Z,72.56
2019-05-13T04:27:32.988Z,73.06
2019-05-13T04:30:03.475Z,72.07
2019-05-13T04:32:33.343Z,72.48
2019-05-13T04:34:58.908Z,72.19
2019-05-13T04:37:26.002Z,73.45
2019-05-13T04:39:56.306Z,72.96
2019-05-13T04:42:23.110Z,73.15
2019-05-13T04:44:53.235Z,73.01
2019-05-13T04:47:22.681Z,73.22
2019-05-13T04:49:48.841Z,73.49
2019-05-13T04:52:22.286Z,72.17
2019-05-13T04:54:48.670Z,73.38
2019-05-13T04:57:15.935Z,73.37
2019-05-13T04:59:44.507Z,72.72
2019-05-13T05:02:49.029Z,72.55
2019-05-13T05:05:36.856Z,72.84
2019-05-13T05:08:55.245Z,71.87
2019-05-13T05:12:09.350Z,72.11
2019-05-13T05:15:14.541Z,71.85
2019-05-13T05:18:12.870Z,71.44
2019-05-13T05:21:14.698Z,71.98
2019-05-13T05:24:32.431Z,72.49
2019-05-13T05:27:42.085Z,71.83
2019-05-13T05:30:41.728Z,72.21
2019-05-13T05:33:51.864Z,71.40
2019-05-13T05:36:52.048Z,71.49
2019-05-13T05:39:22.785Z,72.49
2019-05-13T05:41:53.061Z,70.52
2019-05-13T05:44:21.947Z,71.21
2019-05-13T05:46:51.427Z,70.28
2019-05-13T05:49:23.700Z,70.77
2019-05-13T05:51:51.585Z,70.46
2019-05-13T05:54:21.817Z,70.59
2019-05-13T05:56:51.938Z,69.43
2019-05-13T05:59:21.923Z,69.82
2019-05-13T06:01:52.623Z,70.28
2019-05-13T06:04:21.769Z,69.91
2019-05-13T06:06:52.074Z,69.72
2019-05-13T06:09:18.530Z,68.81
2019-05-13T06:11:45.599Z,69.10
2019-05-13T06:14:13.808Z,69.53
2019-05-13T06:16:42.549Z,69.60
2019-05-13T06:19:12.131Z,69.36
2019-05-13T06:21:39.061Z,68.97
2019-05-13T06:24:06.129Z,67.83
2019-05-13T06:26:33.352Z,68.51
2019-05-13T06:29:02.699Z,69.18
2019-05-13T06:31:32.079Z,67.61
2019-05-13T06:33:59.132Z,68.08
2019-05-13T06:36:26.227Z,67.51
2019-05-13T06:38:53.717Z,66.09
2019-05-13T06:41:22.002Z,65.55
2019-05-13T06:43:49.662Z,66.39
2019-05-13T06:46:17.080Z,65.93
2019-05-13T06:48:44.300Z,65.28
2019-05-13T06:51:11.674Z,65.34
2019-05-13T06:53:42.461Z,64.10
2019-05-13T06:56:12.116Z,63.21
2019-05-13T06:58:41.355Z,63.31
2019-05-13T07:01:14.526Z,62.47
2019-05-13T07:03:42.136Z,62.19
2019-05-13T07:06:12.168Z,61.42
2019-05-13T07:08:38.722Z,61.30
2019-05-13T07:11:17.775Z,60.68
2019-05-13T07:13:36.033Z,59.81
2019-05-13T07:16:03.527Z,59.71
2019-05-13T07:18:32.373Z,58.27
2019-05-13T07:21:02.250Z,58.59
2019-05-13T07:23:31.648Z,58.05
2019-05-13T07:25:58.033Z,57.39
2019-05-13T07:28:25.661Z,56.62
2019-05-13T07:30:52.935Z,55.89
2019-05-13T07:33:21.387Z,56.24
2019-05-13T07:35:49.099Z,55.50
2019-05-13T07:38:16.813Z,55.87
2019-05-13T07:40:43.988Z,57.23
2019-05-13T07:43:12.275Z,52.93
2019-05-13T07:45:42.080Z,53.01
2019-05-13T07:48:20.664Z,51.59
2019-05-13T07:50:51.519Z,51.01
2019-05-13T07:53:06.958Z,51.50
2019-05-13T07:55:34.105Z,49.47
2019-05-13T07:58:02.132Z,48.73
2019-05-13T08:00:29.384Z,49.10
2019-05-13T08:02:56.484Z,48.19
2019-05-13T08:05:23.562Z,48.46
2019-05-13T08:07:51.481Z,47.66
2019-05-13T08:10:21.763Z,48.36
2019-05-13T08:12:48.576Z,44.01
2019-05-13T08:15:15.839Z,43.75
2019-05-13T08:17:47.298Z,44.38
2019-05-13T08:20:13.251Z,43.94
2019-05-13T08:22:42.440Z,42.83
2019-05-13T08:25:09.474Z,40.62
2019-05-13T08:27:36.939Z,43.60
2019-05-13T08:30:04.639Z,42.63
2019-05-13T08:32:31.848Z,40.60
2019-05-13T08:35:06.976Z,40.17
2019-05-13T08:37:27.885Z,39.80
2019-05-13T08:39:55.011Z,39.49
2019-05-13T08:42:23.842Z,35.32
2019-05-13T08:44:52.341Z,37.08
2019-05-13T08:47:22.436Z,39.45
2019-05-13T08:49:49.176Z,39.34
2019-05-13T08:52:17.142Z,39.68
2019-05-13T08:54:44.260Z,36.73
2019-05-13T08:57:11.958Z,35.29
2019-05-13T08:59:41.548Z,35.30
2019-05-13T09:02:08.675Z,34.89
2019-05-13T09:04:35.785Z,35.41
2019-05-13T09:07:02.958Z,31.96
2019-05-13T09:09:31.379Z,33.79
2019-05-13T09:11:59.237Z,32.84
2019-05-13T09:14:26.322Z,34.02
2019-05-13T09:16:53.724Z,32.94
2019-05-13T09:19:21.577Z,33.60
2019-05-13T09:21:48.799Z,33.72
2019-05-13T09:24:25.475Z,33.33
2019-05-13T09:26:45.147Z,33.40
2019-05-13T09:29:12.276Z,32.76
2019-05-13T09:31:41.570Z,31.94
2019-05-13T09:34:08.356Z,33.55
2019-05-13T09:36:35.494Z,34.61
2019-05-13T09:39:05.189Z,35.54
2019-05-13T09:41:38.568Z,32.73
2019-05-13T09:44:02.195Z,33.82
2019-05-13T09:46:31.648Z,31.66
2019-05-13T09:49:11.743Z,31.47
2019-05-13T09:51:27.593Z,31.88
2019-05-13T09:53:54.695Z,31.83
2019-05-13T09:56:22.460Z,31.96
2019-05-13T09:58:51.344Z,31.58
2019-05-13T10:01:19.041Z,33.74
2019-05-13T10:03:54.735Z,32.58
2019-05-13T10:06:15.541Z,30.12
2019-05-13T10:08:42.577Z,27.16
2019-05-13T10:11:12.340Z,28.72
2019-05-13T10:13:39.179Z,28.71
2019-05-13T10:16:06.268Z,29.73
2019-05-13T10:18:33.425Z,27.38
2019-05-13T10:21:01.432Z,28.62
2019-05-13T10:23:29.105Z,28.91
2019-05-13T10:25:59.113Z,28.34
2019-05-13T10:28:26.705Z,25.50
2019-05-13T10:30:54.690Z,28.32
2019-05-13T10:33:22.329Z,26.02
2019-05-13T10:35:52.399Z,25.52
2019-05-13T10:38:22.731Z,28.59
2019-05-13T10:40:51.915Z,28.72
2019-05-13T10:43:31.132Z,28.54
2019-05-13T10:45:48.213Z,29.86
2019-05-13T10:48:15.353Z,32.08
2019-05-13T10:50:42.916Z,30.22
2019-05-13T10:53:12.218Z,30.66
2019-05-13T10:55:38.974Z,29.88
2019-05-13T10:58:06.091Z,28.81
2019-05-13T11:00:42.390Z,30.40
2019-05-13T11:03:11.769Z,30.55
2019-05-13T11:05:42.094Z,29.24
2019-05-13T11:08:08.246Z,28.14
2019-05-13T11:10:35.715Z,29.35
2019-05-13T11:13:06.179Z,28.68
2019-05-13T11:15:40.370Z,29.07
2019-05-13T11:18:03.090Z,25.57
2019-05-13T11:20:32.423Z,26.51
2019-05-13T11:22:59.390Z,24.19
2019-05-13T11:25:26.447Z,24.54
2019-05-13T11:27:58.362Z,26.07
2019-05-13T11:30:23.293Z,27.22
2019-05-13T11:32:51.604Z,25.95
2019-05-13T11:35:18.994Z,24.92
2019-05-13T11:37:46.103Z,26.49
2019-05-13T11:40:13.250Z,26.01
2019-05-13T11:42:42.230Z,28.09
2019-05-13T11:45:11.686Z,27.00
2019-05-13T11:47:40.922Z,25.56
2019-05-13T11:50:07.980Z,24.24
2019-05-13T11:52:35.352Z,26.78
2019-05-13T11:55:03.089Z,25.65
2019-05-13T11:57:33.867Z,26.40
2019-05-13T12:00:02.547Z,25.84
2019-05-13T12:02:32.719Z,27.08
2019-05-13T12:05:03.149Z,27.91
2019-05-13T12:07:28.418Z,29.75
2019-05-13T12:09:55.729Z,29.21
2019-05-13T12:12:30.157Z,28.56
2019-05-13T12:15:20.266Z,27.16
2019-05-13T12:17:22.503Z,29.75
2019-05-13T12:19:49.895Z,28.73
2019-05-13T12:22:16.959Z,26.99
2019-05-13T12:24:45.263Z,31.78
2019-05-13T12:27:15.411Z,30.68
2019-05-13T12:29:43.299Z,27.14
2019-05-13T12:32:13.541Z,25.44
2019-05-13T12:34:45.001Z,26.49
2019-05-13T12:37:12.030Z,25.38
2019-05-13T12:39:39.022Z,26.50
2019-05-13T12:42:06.128Z,26.16
2019-05-13T12:44:33.922Z,26.09
2019-05-13T12:47:03.348Z,25.40
2019-05-13T12:49:33.535Z,23.68
2019-05-13T12:52:03.551Z,26.11
2019-05-13T12:54:28.358Z,24.34
2019-05-13T12:56:55.508Z,24.05
2019-05-13T12:59:22.568Z,23.43
2019-05-13T13:01:51.898Z,23.94
2019-05-13T13:04:19.003Z,24.45
2019-05-13T13:06:46.048Z,25.39
2019-05-13T13:09:13.307Z,25.83
2019-05-13T13:11:43.771Z,25.68
2019-05-13T13:14:14.092Z,25.95
2019-05-13T13:16:38.294Z,26.38
2019-05-13T13:19:06.220Z,26.34
2019-05-13T13:21:37.498Z,27.35
2019-05-13T13:24:04.542Z,25.09
2019-05-13T13:26:33.514Z,24.72
2019-05-13T13:29:00.976Z,26.93
2019-05-13T13:31:28.518Z,22.93
2019-05-13T13:33:56.015Z,25.26
2019-05-13T13:36:24.137Z,24.78
2019-05-13T13:38:56.106Z,24.83
2019-05-13T13:41:22.914Z,27.40
2019-05-13T13:43:53.828Z,25.67
2019-05-13T13:46:33.828Z,27.80
2019-05-13T13:48:48.560Z,26.64
2019-05-13T13:51:15.727Z,27.22
2019-05-13T13:53:44.581Z,26.29
2019-05-13T13:56:14.508Z,26.67
2019-05-13T13:58:43.873Z,25.97
2019-05-13T14:01:17.613Z,25.98
2019-05-13T14:03:45.631Z,25.70
2019-05-13T14:06:08.322Z,28.66
2019-05-13T14:08:35.491Z,27.12
2019-05-13T14:11:05.304Z,26.44
2019-05-13T14:13:33.496Z,25.62
2019-05-13T14:16:01.841Z,25.20
2019-05-13T14:18:31.727Z,23.88
2019-05-13T14:20:59.953Z,24.48
2019-05-13T14:23:27.061Z,24.82
2019-05-13T14:25:55.597Z,24.37
2019-05-13T14:28:26.205Z,24.38
2019-05-13T14:30:53.282Z,24.50
2019-05-13T14:36:48.944Z,26.62
2019-05-13T14:39:16.455Z,28.40
2019-05-13T14:41:45.575Z,27.51
2019-05-13T14:44:14.623Z,29.24
2019-05-13T14:46:47.710Z,29.23
2019-05-13T14:49:12.391Z,31.75
2019-05-13T14:51:41.487Z,30.99
2019-05-13T14:54:08.687Z,31.96
2019-05-13T14:56:35.789Z,29.64
2019-05-13T14:59:03.571Z,28.60
2019-05-13T15:01:31.903Z,31.67
2019-05-13T15:03:59.270Z,30.81
2019-05-13T15:06:26.389Z,26.74
2019-05-13T15:08:53.849Z,26.91
2019-05-13T15:11:21.939Z,27.51
2019-05-13T15:13:51.205Z,26.20
2019-05-13T15:16:18.844Z,27.11
2019-05-13T15:18:46.259Z,26.33
2019-05-13T15:21:13.341Z,26.19
2019-05-13T15:23:42.323Z,30.63
2019-05-13T15:26:11.689Z,29.09
2019-05-13T15:28:39.065Z,29.22
2019-05-13T15:31:07.005Z,28.28
2019-05-13T15:33:34.464Z,30.44
2019-05-13T15:36:02.409Z,31.24
2019-05-13T15:38:32.086Z,33.50
2019-05-13T15:41:01.196Z,34.62
2019-05-13T15:43:28.382Z,32.06
2019-05-13T15:45:56.123Z,33.70
2019-05-13T15:48:23.274Z,35.38
2019-05-13T15:50:56.513Z,32.09
2019-05-13T15:53:27.958Z,33.68
2019-05-13T15:55:55.097Z,33.33
2019-05-13T15:58:38.049Z,35.94
2019-05-13T16:01:03.114Z,29.79
2019-05-13T16:03:36.997Z,30.54
2019-05-13T16:06:07.614Z,27.76
2019-05-13T16:08:37.777Z,26.15
2019-05-13T16:11:05.262Z,28.60
2019-05-13T16:13:35.669Z,28.54
2019-05-13T16:16:12.417Z,28.59
2019-05-13T16:46:37.916Z,30.52
2019-05-13T16:49:04.692Z,32.36
2019-05-13T16:51:31.797Z,30.90
2019-05-13T16:53:59.006Z,28.44
2019-05-13T16:56:30.214Z,30.70
2019-05-13T16:58:54.767Z,34.32
2019-05-13T17:01:22.116Z,33.72
2019-05-13T17:03:51.177Z,33.43
2019-05-13T17:06:17.898Z,34.89
2019-05-13T17:08:44.651Z,38.21
2019-05-13T17:11:11.946Z,39.73
2019-05-13T17:13:39.375Z,40.02
2019-05-13T17:16:06.189Z,41.92
2019-05-13T17:18:33.085Z,41.83
2019-05-13T17:21:01.429Z,45.26
2019-05-13T17:23:28.409Z,42.02
2019-05-13T17:25:55.266Z,43.65
2019-05-13T17:28:22.080Z,42.30
2019-05-13T17:30:48.807Z,44.28
2019-05-13T17:33:15.655Z,41.02
2019-05-13T17:35:42.806Z,42.06
2019-05-13T17:38:11.369Z,43.08
2019-05-13T17:40:38.361Z,42.60
2019-05-13T17:43:05.579Z,40.80
2019-05-13T17:45:32.345Z,46.31
2019-05-13T17:48:01.087Z,46.37
2019-05-13T17:50:28.024Z,43.88
2019-05-13T17:52:54.996Z,45.24
2019-05-13T17:55:22.407Z,44.65
2019-05-13T17:57:49.308Z,47.09
2019-05-13T18:00:16.982Z,46.74
2019-05-13T18:02:43.715Z,43.67
2019-05-13T18:05:12.105Z,46.64
2019-05-13T18:07:39.257Z,48.32
2019-05-13T18:10:06.317Z,45.06
2019-05-13T18:12:33.262Z,48.48
2019-05-13T18:15:02.281Z,50.78
2019-05-13T18:17:31.063Z,49.05
2019-05-13T18:19:57.989Z,49.39
2019-05-13T18:22:24.739Z,50.51
2019-05-13T18:24:52.003Z,51.37
2019-05-13T18:27:18.869Z,49.51
2019-05-13T18:29:45.659Z,51.27
2019-05-13T18:32:12.610Z,51.70
2019-05-13T18:34:45.309Z,54.31
2019-05-13T18:37:12.106Z,57.78
2019-05-13T18:39:41.657Z,58.04
2019-05-13T18:42:08.259Z,60.15
2019-05-13T18:44:35.791Z,59.98
2019-05-13T18:47:03.064Z,57.19
2019-05-13T18:49:31.895Z,56.41
2019-05-13T18:51:59.011Z,58.05
2019-05-13T18:54:25.767Z,58.49
2019-05-13T18:56:52.673Z,63.71
2019-05-13T18:59:21.464Z,59.95
2019-05-13T19:01:48.322Z,63.02
2019-05-13T19:04:15.776Z,64.64
2019-05-13T19:06:43.922Z,63.52
2019-05-13T19:09:12.506Z,66.51
2019-05-13T19:11:39.581Z,67.70
2019-05-13T19:14:08.486Z,68.23
2019-05-13T19:16:36.012Z,66.98
2019-05-13T19:19:12.306Z,56.48
2019-05-13T19:21:31.977Z,55.68
2019-05-13T19:23:58.995Z,51.46
2019-05-13T19:26:25.786Z,55.41
2019-05-13T19:28:52.526Z,54.42
2019-05-13T19:31:22.050Z,57.65
2019-05-13T19:33:49.006Z,52.05
2019-05-13T19:36:15.767Z,52.57
2019-05-13T19:38:42.694Z,55.52
2019-05-13T19:41:11.625Z,56.63
2019-05-13T19:43:38.403Z,56.71
2019-05-13T19:46:05.281Z,57.79
2019-05-13T19:48:32.933Z,57.70
2019-05-13T19:51:01.555Z,62.89
2019-05-13T19:53:29.035Z,59.51
2019-05-13T19:55:56.241Z,61.09
2019-05-13T19:58:25.229Z,63.65
2019-05-13T20:00:52.595Z,66.97
2019-05-13T20:03:19.379Z,65.70
2019-05-13T20:05:46.327Z,68.30
2019-05-13T20:08:14.656Z,69.20
2019-05-13T20:10:42.277Z,65.27
2019-05-13T20:13:11.109Z,68.10
2019-05-13T20:15:37.935Z,66.94
2019-05-13T20:18:04.580Z,70.06
2019-05-13T20:20:31.763Z,72.65
2019-05-13T20:23:01.247Z,72.76
2019-05-13T20:25:27.629Z,73.43
2019-05-13T20:27:54.430Z,74.44
2019-05-13T20:30:21.951Z,73.29
2019-05-13T20:32:51.340Z,69.09
2019-05-13T20:35:18.044Z,69.63
2019-05-13T20:37:44.802Z,71.24
2019-05-13T20:40:11.731Z,72.71
2019-05-13T20:42:38.454Z,74.03
2019-05-13T20:45:05.215Z,71.41
2019-05-13T20:47:33.429Z,73.01
2019-05-13T20:50:02.378Z,74.34
2019-05-13T20:52:31.429Z,72.85
2019-05-13T20:54:58.230Z,72.91
2019-05-13T20:57:26.091Z,73.26
2019-05-13T20:59:53.177Z,74.82
2019-05-13T21:02:22.141Z,75.65
2019-05-13T21:04:48.766Z,77.04
2019-05-13T21:07:15.790Z,75.76
2019-05-13T21:09:42.576Z,75.61
2019-05-13T21:12:11.873Z,75.75
2019-05-13T21:14:38.653Z,77.35
2019-05-13T21:17:06.526Z,77.55
2019-05-13T21:19:39.191Z,77.38
2019-05-13T21:22:02.447Z,77.10
2019-05-13T21:24:29.196Z,77.21
2019-05-13T21:26:55.987Z,78.23
2019-05-13T21:29:22.955Z,78.71
2019-05-13T21:31:49.733Z,75.78
2019-05-13T21:34:16.496Z,77.27
2019-05-13T21:36:43.273Z,78.03
2019-05-13T21:39:12.212Z,78.15
2019-05-13T21:41:41.147Z,78.65
2019-05-13T21:44:07.735Z,80.75
2019-05-13T21:46:34.534Z,81.49
2019-05-13T21:49:01.319Z,82.16
2019-05-13T21:51:28.118Z,81.61
2019-05-13T21:53:56.006Z,81.17
2019-05-13T21:56:23.377Z,80.46
2019-05-13T21:58:52.009Z,81.81
2019-05-13T22:01:23.056Z,80.77
2019-05-13T22:03:47.862Z,82.25
2019-05-13T22:06:15.159Z,82.05
2019-05-13T22:08:42.012Z,82.71
2019-05-13T22:11:09.158Z,83.51
2019-05-13T22:13:36.150Z,82.96
2019-05-13T22:16:03.009Z,83.37
2019-05-13T22:18:31.423Z,85.01
2019-05-13T22:20:58.576Z,85.91
2019-05-13T22:23:25.332Z,85.76
2019-05-13T22:25:52.120Z,85.10
2019-05-13T22:28:19.011Z,84.24
2019-05-13T22:30:45.810Z,85.42
2019-05-13T22:33:12.695Z,87.12
2019-05-13T22:35:41.629Z,85.08
2019-05-13T22:38:08.931Z,85.73
2019-05-13T22:40:35.785Z,88.45
2019-05-13T22:43:02.677Z,90.40
2019-05-13T22:45:31.260Z,91.32
2019-05-13T22:47:58.124Z,89.86
2019-05-13T22:50:25.185Z,87.14
2019-05-13T22:52:52.357Z,89.85
2019-05-13T22:55:19.176Z,91.07
2019-05-13T22:57:46.336Z,86.79
2019-05-13T23:00:13.182Z,83.57
2019-05-13T23:02:42.181Z,88.66
2019-05-13T23:05:11.154Z,89.04
2019-05-13T23:07:38.003Z,87.08
2019-05-13T23:10:05.392Z,84.77
2019-05-13T23:12:32.605Z,86.79
2019-05-13T23:15:01.303Z,88.33
2019-05-13T23:17:28.432Z,88.37
2019-05-13T23:19:55.688Z,89.33
2019-05-13T23:22:22.592Z,90.61
2019-05-13T23:24:49.364Z,90.16
2019-05-13T23:27:16.271Z,89.62
2019-05-13T23:29:43.033Z,91.26
2019-05-13T23:32:12.033Z,92.10
2019-05-13T23:34:38.929Z,92.27
2019-05-13T23:37:05.790Z,91.39
2019-05-13T23:39:32.593Z,92.04
2019-05-13T23:42:01.432Z,92.53
2019-05-13T23:44:28.501Z,92.52
2019-05-13T23:46:55.400Z,91.03
2019-05-13T23:49:22.295Z,88.03
2019-05-13T23:51:49.273Z,88.03
2019-05-13T23:54:16.158Z,89.61
2019-05-13T23:56:43.073Z,90.88
2019-05-13T23:59:11.343Z,89.88
